Time;durP1;ratioP1;P1;durP2;ratioP2;P2;SDS_P1;SDS_P2;PMS_P1;PMS_P2;Temp;Humidity;BMP_temperature;BMP_pressure;BME280_temperature;BME280_humidity;BME280_pressure;Samples;Min_cycle;Max_cycle;Signal;HPM_P1;HPM_P2
2022/06/23 00:00:24;;;;;;;13.27;5.35;;;;;;;;;;5055282;28;20036;-37
2022/06/23 00:02:50;;;;;;;12.77;5.60;;;;;;;;;;5054706;28;20628;-39
2022/06/23 00:05:18;;;;;;;12.85;5.95;;;;;;;;;;5055248;28;20024;-37
2022/06/23 00:07:45;;;;;;;11.25;5.45;;;;;;;;;;5055107;28;20021;-37
2022/06/23 00:10:15;;;;;;;15.93;6.72;;;;;;;;;;5054892;28;20044;-36
2022/06/23 00:12:41;;;;;;;15.77;6.35;;;;;;;;;;5054912;28;20541;-39
2022/06/23 00:15:06;;;;;;;19.70;5.82;;;;;;;;;;5054491;28;20017;-38
2022/06/23 00:17:34;;;;;;;22.77;6.53;;;;;;;;;;5054656;28;20399;-37
2022/06/23 00:20:03;;;;;;;10.77;5.93;;;;;;;;;;5061317;28;20015;-37
2022/06/23 00:22:30;;;;;;;9.85;5.25;;;;;;;;;;5074981;28;20028;-37
2022/06/23 00:24:56;;;;;;;16.40;5.75;;;;;;;;;;5074655;28;20024;-37
2022/06/23 00:27:23;;;;;;;11.45;5.57;;;;;;;;;;5074289;28;20020;-37
2022/06/23 00:29:48;;;;;;;11.98;6.63;;;;;;;;;;5074673;28;20422;-37
2022/06/23 00:32:14;;;;;;;11.05;6.10;;;;;;;;;;5074375;28;20036;-37
2022/06/23 00:34:50;;;;;;;17.92;7.25;;;;;;;;;;5074821;28;20487;-38
2022/06/23 00:37:17;;;;;;;12.27;6.80;;;;;;;;;;5074542;28;20066;-37
2022/06/23 00:39:42;;;;;;;22.85;8.80;;;;;;;;;;5074083;28;20478;-37
2022/06/23 00:42:26;;;;;;;18.90;7.45;;;;;;;;;;5073814;28;20020;-38
2022/06/23 00:44:51;;;;;;;8.82;5.80;;;;;;;;;;5074408;28;20021;-37
2022/06/23 00:47:21;;;;;;;11.83;6.57;;;;;;;;;;5074585;28;20413;-37
2022/06/23 00:49:55;;;;;;;12.57;6.75;;;;;;;;;;5074282;28;20244;-37
2022/06/23 00:52:31;;;;;;;12.88;5.78;;;;;;;;;;5073811;28;20033;-37
2022/06/23 00:54:59;;;;;;;16.45;6.10;;;;;;;;;;5072407;28;20403;-37
2022/06/23 00:57:28;;;;;;;11.25;6.15;;;;;;;;;;5073981;28;20095;-39
2022/06/23 00:59:58;;;;;;;12.18;5.93;;;;;;;;;;5073884;28;20062;-37
2022/06/23 01:02:27;;;;;;;12.70;6.15;;;;;;;;;;5074238;28;20036;-37
2022/06/23 01:04:58;;;;;;;14.52;5.60;;;;;;;;;;5073522;28;20024;-37
2022/06/23 01:07:42;;;;;;;13.23;6.50;;;;;;;;;;5073946;28;20102;-39
2022/06/23 01:10:13;;;;;;;18.98;8.20;;;;;;;;;;5073705;28;20091;-37
2022/06/23 01:12:41;;;;;;;10.02;6.38;;;;;;;;;;5072522;28;20036;-37
2022/06/23 01:15:28;;;;;;;13.57;6.83;;;;;;;;;;5073538;28;20020;-36
2022/06/23 01:17:57;;;;;;;17.42;7.40;;;;;;;;;;5073490;28;20147;-37
2022/06/23 01:20:42;;;;;;;11.63;6.40;;;;;;;;;;5064254;28;20039;-36
2022/06/23 01:23:26;;;;;;;11.55;6.35;;;;;;;;;;5052256;28;20345;-37
2022/06/23 01:25:55;;;;;;;10.55;6.00;;;;;;;;;;5053547;28;20025;-37
2022/06/23 01:28:21;;;;;;;12.88;6.28;;;;;;;;;;5053225;28;20028;-38
2022/06/23 01:30:49;;;;;;;12.90;6.82;;;;;;;;;;5053560;28;20033;-37
2022/06/23 01:33:28;;;;;;;16.10;7.20;;;;;;;;;;5053182;28;20033;-37
2022/06/23 01:36:03;;;;;;;14.05;7.22;;;;;;;;;;5053423;28;20029;-37
2022/06/23 01:38:34;;;;;;;16.92;7.25;;;;;;;;;;5053073;28;20048;-37
2022/06/23 01:41:07;;;;;;;14.30;6.82;;;;;;;;;;5053446;28;20036;-37
2022/06/23 01:43:41;;;;;;;18.30;7.10;;;;;;;;;;5053311;28;20017;-37
2022/06/23 01:46:09;;;;;;;13.02;6.85;;;;;;;;;;5053346;28;20491;-36
2022/06/23 01:48:52;;;;;;;16.33;7.28;;;;;;;;;;5053240;28;20025;-37
2022/06/23 01:51:19;;;;;;;16.80;6.93;;;;;;;;;;5052820;28;20028;-37
2022/06/23 01:53:45;;;;;;;11.13;7.28;;;;;;;;;;5052566;28;20111;-37
2022/06/23 01:56:30;;;;;;;11.88;6.55;;;;;;;;;;5053143;28;20118;-37
2022/06/23 02:02:08;;;;;;;17.25;7.85;;;;;;;;;;5052485;28;20031;-37
2022/06/23 02:04:42;;;;;;;11.48;7.30;;;;;;;;;;5052624;28;20063;-37
2022/06/23 02:07:15;;;;;;;14.15;7.70;;;;;;;;;;5051465;28;20025;-37
2022/06/23 02:09:43;;;;;;;13.95;6.93;;;;;;;;;;5052716;28;20053;-37
2022/06/23 02:12:17;;;;;;;17.40;7.65;;;;;;;;;;5052463;28;20049;-37
2022/06/23 02:14:45;;;;;;;19.77;8.10;;;;;;;;;;5052358;28;20036;-37
2022/06/23 02:17:16;;;;;;;15.10;7.68;;;;;;;;;;5052540;28;20020;-37
2022/06/23 02:19:48;;;;;;;12.35;6.70;;;;;;;;;;5056477;28;20159;-38
2022/06/23 02:22:21;;;;;;;13.80;7.57;;;;;;;;;;5072459;28;20071;-37
2022/06/23 02:24:49;;;;;;;14.20;8.13;;;;;;;;;;5072071;28;20101;-37
2022/06/23 02:27:20;;;;;;;17.60;8.02;;;;;;;;;;5071940;28;20028;-37
2022/06/23 02:29:46;;;;;;;14.38;8.65;;;;;;;;;;5072281;28;20055;-37
2022/06/23 02:32:22;;;;;;;15.70;9.45;;;;;;;;;;5072187;28;20114;-36
2022/06/23 02:35:00;;;;;;;18.13;8.52;;;;;;;;;;5072086;28;20024;-36
2022/06/23 02:37:44;;;;;;;21.58;9.45;;;;;;;;;;5072127;28;20388;-36
2022/06/23 02:40:26;;;;;;;15.27;8.80;;;;;;;;;;5072034;28;20102;-36
2022/06/23 02:43:13;;;;;;;15.73;9.07;;;;;;;;;;5071850;28;20031;-37
2022/06/23 02:45:57;;;;;;;15.13;9.00;;;;;;;;;;5071793;28;20078;-36
2022/06/23 02:48:35;;;;;;;18.38;9.63;;;;;;;;;;5070895;28;20044;-37
2022/06/23 02:51:07;;;;;;;19.92;9.07;;;;;;;;;;5071639;28;20213;-36
2022/06/23 02:53:59;;;;;;;15.95;8.77;;;;;;;;;;5071793;28;20407;-37
2022/06/23 02:56:56;;;;;;;11.02;7.30;;;;;;;;;;5071743;28;20056;-36
2022/06/23 02:59:45;;;;;;;11.73;8.10;;;;;;;;;;5070291;28;20075;-36
2022/06/23 03:02:22;;;;;;;14.90;8.80;;;;;;;;;;5071733;28;20105;-37
2022/06/23 03:04:51;;;;;;;20.88;9.50;;;;;;;;;;5070984;28;20051;-37
2022/06/23 03:07:16;;;;;;;14.70;9.00;;;;;;;;;;5072104;28;20032;-36
2022/06/23 03:09:44;;;;;;;14.43;9.93;;;;;;;;;;5071703;28;20041;-38
2022/06/23 03:12:09;;;;;;;13.35;9.10;;;;;;;;;;5071517;28;20033;-37
2022/06/23 03:14:51;;;;;;;14.18;8.88;;;;;;;;;;5071447;28;20023;-36
2022/06/23 03:17:27;;;;;;;16.38;9.20;;;;;;;;;;5069782;28;20391;-37
2022/06/23 03:19:55;;;;;;;11.70;7.88;;;;;;;;;;5066294;28;20133;-37
2022/06/23 03:22:30;;;;;;;23.30;8.90;;;;;;;;;;5051798;28;20494;-37
2022/06/23 03:24:56;;;;;;;18.15;8.75;;;;;;;;;;5051510;28;20021;-37
2022/06/23 03:27:34;;;;;;;16.25;8.75;;;;;;;;;;5051344;28;20107;-37
2022/06/23 03:30:02;;;;;;;16.52;9.57;;;;;;;;;;5051326;28;20029;-36
2022/06/23 03:32:30;;;;;;;15.50;8.63;;;;;;;;;;5050248;28;20060;-37
2022/06/23 03:34:59;;;;;;;14.80;9.20;;;;;;;;;;5051624;28;20064;-37
2022/06/23 03:37:33;;;;;;;15.43;9.95;;;;;;;;;;5051414;28;20230;-37
2022/06/23 03:42:57;;;;;;;22.67;9.25;;;;;;;;;;5051385;28;20139;-37
2022/06/23 03:45:28;;;;;;;21.05;9.20;;;;;;;;;;5051522;28;20025;-37
2022/06/23 03:48:02;;;;;;;12.80;8.35;;;;;;;;;;5051403;28;20099;-37
2022/06/23 03:50:27;;;;;;;13.73;8.13;;;;;;;;;;5051841;28;20075;-37
2022/06/23 03:53:19;;;;;;;15.85;7.70;;;;;;;;;;5051038;28;20118;-37
2022/06/23 03:55:51;;;;;;;13.13;8.05;;;;;;;;;;5051045;28;20043;-37
2022/06/23 03:58:19;;;;;;;10.20;7.85;;;;;;;;;;5051206;28;20384;-38
2022/06/23 04:01:12;;;;;;;13.95;8.50;;;;;;;;;;5051208;28;20036;-37
2022/06/23 04:03:37;;;;;;;11.57;8.27;;;;;;;;;;5051173;28;20029;-37
2022/06/23 04:06:18;;;;;;;9.68;6.97;;;;;;;;;;5051169;28;20371;-38
2022/06/23 04:08:54;;;;;;;13.52;7.43;;;;;;;;;;5051006;28;20028;-38
2022/06/23 04:14:07;;;;;;;15.35;6.70;;;;;;;;;;5050894;28;20064;-38
2022/06/23 04:16:33;;;;;;;9.88;6.75;;;;;;;;;;5051672;28;20036;-38
2022/06/23 04:19:03;;;;;;;10.43;6.68;;;;;;;;;;5054692;28;20025;-37
2022/06/23 04:21:28;;;;;;;10.77;7.00;;;;;;;;;;5073635;28;20447;-37
2022/06/23 04:24:00;;;;;;;9.60;6.53;;;;;;;;;;5074269;28;20024;-38
2022/06/23 04:26:29;;;;;;;18.85;7.63;;;;;;;;;;5074624;28;20063;-38
2022/06/23 04:29:00;;;;;;;11.95;6.55;;;;;;;;;;5074552;28;20021;-37
2022/06/23 04:31:27;;;;;;;16.48;5.65;;;;;;;;;;5074861;28;20029;-37
2022/06/23 04:33:53;;;;;;;9.15;5.43;;;;;;;;;;5074441;28;20521;-37
2022/06/23 04:36:29;;;;;;;9.45;5.43;;;;;;;;;;5074640;28;20048;-37
2022/06/23 04:39:00;;;;;;;9.13;5.63;;;;;;;;;;5074049;28;20031;-38
2022/06/23 04:41:37;;;;;;;11.15;4.97;;;;;;;;;;5074403;28;20020;-37
2022/06/23 04:44:11;;;;;;;9.15;4.70;;;;;;;;;;5074308;28;20020;-37
2022/06/23 04:46:47;;;;;;;11.52;4.05;;;;;;;;;;5074277;28;20800;-37
2022/06/23 04:49:18;;;;;;;8.77;5.18;;;;;;;;;;5074052;28;20107;-37
2022/06/23 04:51:56;;;;;;;9.05;5.10;;;;;;;;;;5072560;28;20035;-37
2022/06/23 04:54:27;;;;;;;10.07;4.68;;;;;;;;;;5074167;28;20024;-37
2022/06/23 04:56:57;;;;;;;6.85;4.97;;;;;;;;;;5074026;28;20024;-38
2022/06/23 04:59:25;;;;;;;6.50;4.38;;;;;;;;;;5074005;28;20069;-37
2022/06/23 05:01:51;;;;;;;6.50;4.20;;;;;;;;;;5073617;28;20025;-39
2022/06/23 05:04:23;;;;;;;22.70;5.10;;;;;;;;;;5073761;28;20378;-38
2022/06/23 05:06:50;;;;;;;6.93;4.82;;;;;;;;;;5073846;28;20468;-37
2022/06/23 05:09:28;;;;;;;8.20;4.97;;;;;;;;;;5073639;28;20048;-37
2022/06/23 05:11:56;;;;;;;11.95;4.07;;;;;;;;;;5073424;28;20028;-38
2022/06/23 05:14:25;;;;;;;7.65;3.85;;;;;;;;;;5073152;28;20028;-38
2022/06/23 05:16:50;;;;;;;;;;;;;;;;;;5072753;28;20024;-38
2022/06/23 05:19:19;;;;;;;9.03;4.13;;;;;;;;;;5072269;28;19904;-37
2022/06/23 05:21:50;;;;;;;4.57;3.30;;;;;;;;;;5053671;28;20242;-38
2022/06/23 05:24:18;;;;;;;4.65;3.47;;;;;;;;;;5052307;28;20020;-37
2022/06/23 05:27:16;;;;;;;7.63;3.93;;;;;;;;;;5052645;28;20024;-38
2022/06/23 05:29:49;;;;;;;5.70;3.50;;;;;;;;;;5051717;28;20726;-41
2022/06/23 05:32:25;;;;;;;8.18;3.20;;;;;;;;;;5053129;28;20040;-39
2022/06/23 05:35:02;;;;;;;3.47;2.30;;;;;;;;;;5053293;28;20353;-38
2022/06/23 05:37:32;;;;;;;6.15;1.83;;;;;;;;;;5053111;28;20041;-38
2022/06/23 05:40:16;;;;;;;4.50;2.03;;;;;;;;;;5053014;28;20024;-37
2022/06/23 05:42:45;;;;;;;5.63;1.98;;;;;;;;;;5053256;28;20025;-39
2022/06/23 05:45:15;;;;;;;3.17;1.80;;;;;;;;;;5053088;28;20066;-37
2022/06/23 05:47:40;;;;;;;5.45;2.50;;;;;;;;;;5051652;28;20426;-37
2022/06/23 05:50:08;;;;;;;2.58;1.80;;;;;;;;;;5053181;28;20104;-38
2022/06/23 05:52:39;;;;;;;5.55;2.42;;;;;;;;;;5051439;28;20399;-39
2022/06/23 05:55:07;;;;;;;4.97;2.10;;;;;;;;;;5052952;28;20017;-37
2022/06/23 05:57:37;;;;;;;4.68;2.03;;;;;;;;;;5052807;28;20108;-37
2022/06/23 06:00:21;;;;;;;3.40;2.15;;;;;;;;;;5052514;28;20013;-37
2022/06/23 06:03:01;;;;;;;2.42;2.15;;;;;;;;;;5052184;28;20025;-38
2022/06/23 06:05:36;;;;;;;3.90;1.85;;;;;;;;;;5052016;28;20033;-38
2022/06/23 06:08:05;;;;;;;4.50;2.00;;;;;;;;;;5062752;28;20540;-37
2022/06/23 06:10:32;;;;;;;4.13;2.10;;;;;;;;;;5062267;28;20048;-38
2022/06/23 06:12:58;;;;;;;4.65;2.00;;;;;;;;;;5064720;28;20128;-37
2022/06/23 06:15:26;;;;;;;4.50;2.17;;;;;;;;;;5064155;28;20150;-37
2022/06/23 06:17:53;;;;;;;4.28;1.73;;;;;;;;;;5056105;28;20066;-37
2022/06/23 06:20:21;;;;;;;3.28;1.88;;;;;;;;;;5060000;28;20054;-37
2022/06/23 06:22:59;;;;;;;7.20;2.33;;;;;;;;;;5056614;28;20032;-36
2022/06/23 06:25:29;;;;;;;3.75;1.52;;;;;;;;;;5055352;28;20480;-36
2022/06/23 06:27:56;;;;;;;5.97;1.80;;;;;;;;;;5052797;28;20493;-37
2022/06/23 06:30:34;;;;;;;4.25;1.70;;;;;;;;;;5056390;28;20032;-37
2022/06/23 06:32:59;;;;;;;3.22;1.90;;;;;;;;;;5058144;28;20081;-37
2022/06/23 06:35:36;;;;;;;2.90;1.80;;;;;;;;;;5062922;28;20024;-37
2022/06/23 06:38:07;;;;;;;5.15;1.45;;;;;;;;;;5055764;28;20047;-37
2022/06/23 06:40:34;;;;;;;3.65;1.55;;;;;;;;;;5059516;28;20060;-37
2022/06/23 06:43:02;;;;;;;2.53;1.50;;;;;;;;;;5051571;28;20021;-37
2022/06/23 06:45:31;;;;;;;4.68;1.50;;;;;;;;;;5053548;28;20427;-37
2022/06/23 06:47:56;;;;;;;;;;;;;;;;;;5066230;28;20055;-38
2022/06/23 06:50:28;;;;;;;9.27;1.57;;;;;;;;;;5057582;28;19908;-37
2022/06/23 06:52:55;;;;;;;2.72;1.67;;;;;;;;;;5069044;28;20059;-37
2022/06/23 06:55:22;;;;;;;3.65;1.77;;;;;;;;;;5054430;28;20035;-37
2022/06/23 06:57:51;;;;;;;4.38;1.58;;;;;;;;;;5066564;28;20364;-36
2022/06/23 07:00:20;;;;;;;4.25;1.70;;;;;;;;;;5050800;28;20055;-38
2022/06/23 07:02:49;;;;;;;3.35;1.65;;;;;;;;;;5063786;28;20028;-37
2022/06/23 07:05:14;;;;;;;5.05;1.65;;;;;;;;;;5068731;28;20043;-37
2022/06/23 07:07:41;;;;;;;4.30;1.83;;;;;;;;;;5071022;28;20020;-37
2022/06/23 07:10:11;;;;;;;6.03;1.95;;;;;;;;;;5070490;28;20288;-37
2022/06/23 07:12:48;;;;;;;3.28;1.88;;;;;;;;;;5069981;28;20059;-39
2022/06/23 07:15:32;;;;;;;8.80;2.17;;;;;;;;;;5059626;28;20020;-37
2022/06/23 07:18:20;;;;;;;2.72;1.77;;;;;;;;;;5061331;28;20116;-38
2022/06/23 07:21:04;;;;;;;2.90;1.65;;;;;;;;;;5051803;28;20052;-37
2022/06/23 07:23:34;;;;;;;6.97;1.88;;;;;;;;;;5050622;28;20384;-38
2022/06/23 07:26:28;;;;;;;3.30;1.70;;;;;;;;;;5063129;28;20519;-37
2022/06/23 07:28:56;;;;;;;2.80;1.55;;;;;;;;;;5070174;28;20068;-38
2022/06/23 07:31:27;;;;;;;2.80;1.83;;;;;;;;;;5055488;28;20025;-37
2022/06/23 07:33:52;;;;;;;5.30;1.80;;;;;;;;;;5055753;28;20111;-38
2022/06/23 07:36:18;;;;;;;6.05;2.00;;;;;;;;;;5054094;28;20694;-38
2022/06/23 07:38:52;;;;;;;2.15;1.60;;;;;;;;;;5057430;28;20028;-37
2022/06/23 07:41:22;;;;;;;2.85;1.50;;;;;;;;;;5050424;28;20024;-37
2022/06/23 07:43:51;;;;;;;2.20;1.80;;;;;;;;;;5051762;28;20021;-40
2022/06/23 07:46:17;;;;;;;2.63;1.30;;;;;;;;;;5060003;28;20016;-36
2022/06/23 07:48:43;;;;;;;7.03;2.22;;;;;;;;;;5056701;28;20419;-37
2022/06/23 07:51:09;;;;;;;1.95;1.70;;;;;;;;;;5055622;28;20039;-40
2022/06/23 07:53:36;;;;;;;4.70;2.05;;;;;;;;;;5065639;28;20384;-37
2022/06/23 07:56:04;;;;;;;2.20;1.63;;;;;;;;;;5067417;28;20352;-39
2022/06/23 07:58:31;;;;;;;3.72;1.75;;;;;;;;;;5054176;28;20464;-37
2022/06/23 08:01:03;;;;;;;2.63;1.52;;;;;;;;;;5057373;28;20033;-37
2022/06/23 08:03:40;;;;;;;3.13;1.80;;;;;;;;;;5055696;28;20433;-36
2022/06/23 08:06:09;;;;;;;2.40;1.50;;;;;;;;;;5056316;28;20112;-37
2022/06/23 08:08:36;;;;;;;7.05;1.83;;;;;;;;;;5054525;28;20025;-41
2022/06/23 08:13:50;;;;;;;26.83;13.98;;;;;;;;;;5069205;28;20035;-37
2022/06/23 08:19:03;;;;;;;25.80;16.65;;;;;;;;;;5062440;28;19931;-43
2022/06/23 08:21:33;;;;;;;13.60;3.05;;;;;;;;;;5059540;28;20029;-39
2022/06/23 08:23:58;;;;;;;5.78;2.38;;;;;;;;;;5062170;28;20051;-36
2022/06/23 08:26:24;;;;;;;7.50;2.80;;;;;;;;;;5073734;28;20029;-37
2022/06/23 08:28:52;;;;;;;4.70;2.22;;;;;;;;;;5059920;28;20270;-36
2022/06/23 08:31:18;;;;;;;6.65;2.58;;;;;;;;;;5066027;28;20382;-36
2022/06/23 08:33:44;;;;;;;3.88;2.28;;;;;;;;;;5054990;28;20605;-36
2022/06/23 08:36:11;;;;;;;3.90;2.03;;;;;;;;;;5053564;28;20056;-39
2022/06/23 08:38:45;;;;;;;4.38;2.25;;;;;;;;;;5064143;28;20258;-35
2022/06/23 08:41:26;;;;;;;6.60;2.50;;;;;;;;;;5052909;28;20044;-35
2022/06/23 08:43:55;;;;;;;4.88;2.30;;;;;;;;;;5055907;28;20067;-39
2022/06/23 08:46:20;;;;;;;4.47;2.03;;;;;;;;;;5062713;28;20036;-38
2022/06/23 08:49:06;;;;;;;5.40;2.08;;;;;;;;;;5054674;28;20029;-36
2022/06/23 08:51:34;;;;;;;16.83;5.25;;;;;;;;;;5066758;28;20056;-36
2022/06/23 08:54:00;;;;;;;;;;;;;;;;;;5064362;28;20028;-37
2022/06/23 08:56:32;;;;;;;3.40;1.83;;;;;;;;;;5065546;28;20041;-35
2022/06/23 08:59:02;;;;;;;6.53;1.70;;;;;;;;;;5060149;28;20078;-36
2022/06/23 09:01:33;;;;;;;4.75;2.08;;;;;;;;;;5055832;28;20029;-35
2022/06/23 09:04:17;;;;;;;3.05;1.30;;;;;;;;;;5057401;28;20021;-35
2022/06/23 09:06:51;;;;;;;10.90;2.45;;;;;;;;;;5060395;28;20025;-35
2022/06/23 09:09:22;;;;;;;1.13;1.02;;;;;;;;;;5054521;28;20044;-36
2022/06/23 09:11:50;;;;;;;2.55;1.13;;;;;;;;;;5052622;28;20075;-37
2022/06/23 09:14:39;;;;;;;1.20;1.05;;;;;;;;;;5052683;28;20032;-36
2022/06/23 09:17:23;;;;;;;4.07;2.10;;;;;;;;;;5055850;28;20025;-37
2022/06/23 09:20:07;;;;;;;4.43;1.67;;;;;;;;;;5057074;28;20027;-37
2022/06/23 09:22:40;;;;;;;4.93;1.67;;;;;;;;;;5072329;28;20032;-38
2022/06/23 09:25:17;;;;;;;5.78;1.42;;;;;;;;;;5072766;28;20016;-37
2022/06/23 09:27:42;;;;;;;2.35;1.48;;;;;;;;;;5073043;28;20025;-37
2022/06/23 09:30:14;;;;;;;2.20;1.70;;;;;;;;;;5072900;28;20166;-37
2022/06/23 09:32:56;;;;;;;1.70;1.17;;;;;;;;;;5071163;28;20032;-37
2022/06/23 09:35:31;;;;;;;2.67;0.90;;;;;;;;;;5072932;28;20028;-37
2022/06/23 09:37:56;;;;;;;4.30;1.30;;;;;;;;;;5072591;28;20073;-37
2022/06/23 09:40:40;;;;;;;3.73;1.37;;;;;;;;;;5072607;28;20028;-38
2022/06/23 09:43:24;;;;;;;1.77;1.20;;;;;;;;;;5072180;28;20709;-37
2022/06/23 09:46:09;;;;;;;1.30;1.00;;;;;;;;;;5072901;28;20078;-38
2022/06/23 09:48:37;;;;;;;0.95;0.85;;;;;;;;;;5071128;28;20020;-39
2022/06/23 09:51:21;;;;;;;2.45;1.27;;;;;;;;;;5065084;28;20059;-41
2022/06/23 09:54:10;;;;;;;1.90;1.00;;;;;;;;;;5056602;28;20033;-37
2022/06/23 09:56:50;;;;;;;2.05;1.02;;;;;;;;;;5051539;28;20083;-38
2022/06/23 09:59:18;;;;;;;3.03;1.05;;;;;;;;;;5052181;28;20056;-38
2022/06/23 10:01:44;;;;;;;2.25;0.90;;;;;;;;;;5059477;28;20035;-38
2022/06/23 10:04:25;;;;;;;1.20;1.10;;;;;;;;;;5058474;28;20036;-38
2022/06/23 10:07:10;;;;;;;7.53;4.13;;;;;;;;;;5058686;28;20265;-38
2022/06/23 10:09:44;;;;;;;3.80;1.10;;;;;;;;;;5049512;28;20461;-38
2022/06/23 10:12:22;;;;;;;7.22;2.92;;;;;;;;;;5057301;28;20058;-38
2022/06/23 10:14:50;;;;;;;1.10;1.00;;;;;;;;;;5065758;28;20031;-38
2022/06/23 10:17:22;;;;;;;1.15;0.98;;;;;;;;;;5060559;28;20548;-39
2022/06/23 10:19:57;;;;;;;6.47;1.13;;;;;;;;;;5083150;28;20035;-38
2022/06/23 10:22:51;;;;;;;4.00;0.82;;;;;;;;;;5072771;28;20056;-39
2022/06/23 10:25:23;;;;;;;3.78;1.00;;;;;;;;;;5084612;28;20046;-38
2022/06/23 10:27:54;;;;;;;3.60;1.30;;;;;;;;;;5056441;28;20035;-38
2022/06/23 10:30:25;;;;;;;5.63;1.15;;;;;;;;;;5063394;28;20472;-38
2022/06/23 10:33:01;;;;;;;2.10;1.10;;;;;;;;;;5064876;28;20031;-38
2022/06/23 10:35:45;;;;;;;1.52;0.90;;;;;;;;;;5071651;28;20105;-39
2022/06/23 10:38:22;;;;;;;1.65;1.38;;;;;;;;;;5079742;28;20016;-38
2022/06/23 10:40:51;;;;;;;5.20;2.00;;;;;;;;;;5057057;28;20569;-38
2022/06/23 10:43:16;;;;;;;;;;;;;;;;;;5081836;28;20104;-41
2022/06/23 10:45:43;;;;;;;10.07;6.00;;;;;;;;;;5074482;28;20003;-38
2022/06/23 10:48:20;;;;;;;5.90;1.75;;;;;;;;;;5071235;28;20043;-39
2022/06/23 10:51:04;;;;;;;17.83;5.70;;;;;;;;;;5056419;28;20056;-39
2022/06/23 10:53:43;;;;;;;1.38;1.00;;;;;;;;;;5068242;28;20040;-38
2022/06/23 10:56:21;;;;;;;8.88;2.70;;;;;;;;;;5053931;28;20051;-38
2022/06/23 10:58:55;;;;;;;5.72;1.65;;;;;;;;;;5065905;28;20021;-38
2022/06/23 11:01:39;;;;;;;3.15;1.10;;;;;;;;;;5061528;28;20480;-37
2022/06/23 11:04:13;;;;;;;1.45;0.85;;;;;;;;;;5048896;28;20025;-39
2022/06/23 11:06:57;;;;;;;2.05;1.30;;;;;;;;;;5068309;28;20030;-38
2022/06/23 11:09:48;;;;;;;1.52;1.00;;;;;;;;;;5070049;28;20143;-38
2022/06/23 11:12:22;;;;;;;3.45;0.85;;;;;;;;;;5085612;28;20118;-37
2022/06/23 11:14:53;;;;;;;5.72;1.15;;;;;;;;;;5091153;28;20020;-37
2022/06/23 11:17:19;;;;;;;2.92;0.88;;;;;;;;;;5063939;28;20067;-38
2022/06/23 11:19:47;;;;;;;3.45;1.10;;;;;;;;;;5065417;28;20017;-38
2022/06/23 11:22:18;;;;;;;3.40;0.95;;;;;;;;;;5050366;28;20035;-39
2022/06/23 11:24:53;;;;;;;2.03;0.98;;;;;;;;;;5054308;28;20029;-38
2022/06/23 11:27:37;;;;;;;1.80;1.10;;;;;;;;;;5054735;28;20036;-41
2022/06/23 11:30:09;;;;;;;1.95;0.90;;;;;;;;;;5067176;28;20017;-38
2022/06/23 11:32:40;;;;;;;2.88;0.90;;;;;;;;;;5070189;28;20035;-40
2022/06/23 11:35:11;;;;;;;1.73;0.93;;;;;;;;;;5070669;28;20058;-37
2022/06/23 11:37:44;;;;;;;5.55;1.17;;;;;;;;;;5070923;28;20092;-38
2022/06/23 11:40:09;;;;;;;2.13;0.90;;;;;;;;;;5069003;28;20120;-38
2022/06/23 11:42:43;;;;;;;4.37;0.90;;;;;;;;;;5070650;28;20087;-39
2022/06/23 11:45:12;;;;;;;2.65;1.02;;;;;;;;;;5070101;28;20251;-38
2022/06/23 11:47:47;;;;;;;4.00;1.10;;;;;;;;;;5064250;28;20546;-41
2022/06/23 11:50:12;;;;;;;0.85;0.85;;;;;;;;;;5054897;28;20024;-39
2022/06/23 11:52:41;;;;;;;2.92;1.10;;;;;;;;;;5056693;28;20116;-38
2022/06/23 11:55:09;;;;;;;4.75;1.13;;;;;;;;;;5054137;28;20411;-39
2022/06/23 11:57:53;;;;;;;3.88;1.25;;;;;;;;;;5051676;28;20480;-39
2022/06/23 12:00:23;;;;;;;1.77;0.90;;;;;;;;;;5060333;28;20021;-39
2022/06/23 12:03:00;;;;;;;1.42;1.05;;;;;;;;;;5058432;28;20017;-40
2022/06/23 12:05:38;;;;;;;3.17;1.00;;;;;;;;;;5053712;28;20094;-41
2022/06/23 12:08:06;;;;;;;1.83;1.05;;;;;;;;;;5060896;28;20439;-39
2022/06/23 12:10:34;;;;;;;2.30;1.17;;;;;;;;;;5068189;28;20060;-45
2022/06/23 12:13:02;;;;;;;4.65;1.20;;;;;;;;;;5073055;28;20086;-38
2022/06/23 12:15:29;;;;;;;4.07;1.30;;;;;;;;;;5061044;28;20108;-38
2022/06/23 12:17:58;;;;;;;4.55;1.13;;;;;;;;;;5053965;28;20008;-38
2022/06/23 12:20:42;;;;;;;2.83;1.05;;;;;;;;;;5049060;28;20029;-40
2022/06/23 12:23:13;;;;;;;3.65;1.00;;;;;;;;;;5052495;28;20372;-38
2022/06/23 12:26:01;;;;;;;1.85;0.90;;;;;;;;;;5061400;28;20071;-38
2022/06/23 12:28:27;;;;;;;4.35;1.02;;;;;;;;;;5058521;28;20103;-39
2022/06/23 12:30:56;;;;;;;8.77;1.17;;;;;;;;;;5050852;28;20055;-39
2022/06/23 12:33:27;;;;;;;5.85;1.30;;;;;;;;;;5049784;28;20285;-38
2022/06/23 12:36:12;;;;;;;6.85;1.00;;;;;;;;;;5058571;28;20500;-39
2022/06/23 12:38:57;;;;;;;3.38;1.20;;;;;;;;;;5057149;28;20029;-40
2022/06/23 12:41:25;;;;;;;6.70;1.15;;;;;;;;;;5064833;28;20064;-39
2022/06/23 12:43:56;;;;;;;3.03;0.93;;;;;;;;;;5062427;28;20029;-37
2022/06/23 12:46:30;;;;;;;4.22;1.35;;;;;;;;;;5060600;28;20027;-39
2022/06/23 12:49:08;;;;;;;3.63;1.23;;;;;;;;;;5057347;28;20032;-39
2022/06/23 12:51:36;;;;;;;1.35;0.90;;;;;;;;;;5060774;28;20437;-38
2022/06/23 12:54:17;;;;;;;1.58;0.82;;;;;;;;;;5064503;28;20032;-40
2022/06/23 12:57:01;;;;;;;1.83;0.80;;;;;;;;;;5064580;28;20043;-39
2022/06/23 12:59:28;;;;;;;4.60;1.30;;;;;;;;;;5061706;28;20040;-40
2022/06/23 13:01:57;;;;;;;2.95;0.77;;;;;;;;;;5064752;28;20020;-38
2022/06/23 13:04:52;;;;;;;5.07;1.10;;;;;;;;;;5060766;28;20063;-39
2022/06/23 13:07:22;;;;;;;2.38;0.90;;;;;;;;;;5048989;28;20091;-39
2022/06/23 13:10:00;;;;;;;6.40;1.42;;;;;;;;;;5053243;28;20040;-44
2022/06/23 13:12:31;;;;;;;1.98;0.90;;;;;;;;;;5058952;28;20036;-41
2022/06/23 13:15:05;;;;;;;2.10;1.23;;;;;;;;;;5069837;28;20032;-40
2022/06/23 13:17:34;;;;;;;3.83;1.00;;;;;;;;;;5059741;28;20443;-38
2022/06/23 13:19:59;;;;;;;;;;;;;;;;;;5052658;28;20388;-39
2022/06/23 13:22:24;;;;;;;2.33;0.90;;;;;;;;;;5054912;28;19909;-38
2022/06/23 13:24:54;;;;;;;9.52;1.85;;;;;;;;;;5064704;28;20021;-38
2022/06/23 13:27:21;;;;;;;2.97;1.25;;;;;;;;;;5056952;28;20129;-38
2022/06/23 13:29:46;;;;;;;5.15;1.27;;;;;;;;;;5053484;28;20126;-39
2022/06/23 13:32:12;;;;;;;8.53;1.33;;;;;;;;;;5075967;28;20120;-40
2022/06/23 13:34:58;;;;;;;4.82;1.17;;;;;;;;;;5081931;28;20270;-43
2022/06/23 13:37:43;;;;;;;3.13;1.50;;;;;;;;;;5063468;28;20111;-38
2022/06/23 13:40:15;;;;;;;7.57;2.95;;;;;;;;;;5050907;28;20033;-38
2022/06/23 13:42:43;;;;;;;1.90;1.25;;;;;;;;;;5054989;28;20029;-40
2022/06/23 13:45:15;;;;;;;6.18;2.13;;;;;;;;;;5058377;28;20135;-38
2022/06/23 13:47:47;;;;;;;2.35;1.10;;;;;;;;;;5059669;28;20360;-42
2022/06/23 13:50:18;;;;;;;9.48;4.30;;;;;;;;;;5068096;28;20132;-39
2022/06/23 13:52:52;;;;;;;2.28;1.52;;;;;;;;;;5052134;28;20045;-38
2022/06/23 13:55:31;;;;;;;11.68;5.85;;;;;;;;;;5054889;28;20029;-41
2022/06/23 13:58:05;;;;;;;16.95;7.80;;;;;;;;;;5061110;28;20032;-39
2022/06/23 14:00:33;;;;;;;2.72;1.15;;;;;;;;;;5067020;28;20069;-39
2022/06/23 14:03:09;;;;;;;4.32;0.93;;;;;;;;;;5068309;28;20032;-38
2022/06/23 14:05:40;;;;;;;5.13;2.58;;;;;;;;;;5059496;28;20467;-39
2022/06/23 14:08:17;;;;;;;3.50;1.38;;;;;;;;;;5063496;28;20024;-40
2022/06/23 14:11:09;;;;;;;3.75;1.42;;;;;;;;;;5054450;28;20130;-39
2022/06/23 14:13:45;;;;;;;4.13;1.35;;;;;;;;;;5057414;28;20080;-42
2022/06/23 14:16:17;;;;;;;2.35;1.13;;;;;;;;;;5053521;28;20634;-40
2022/06/23 14:18:51;;;;;;;3.08;1.20;;;;;;;;;;5061203;28;20464;-40
2022/06/23 14:21:27;;;;;;;7.25;1.40;;;;;;;;;;5058138;28;20048;-39
2022/06/23 14:23:58;;;;;;;5.63;1.30;;;;;;;;;;5057717;28;20024;-40
2022/06/23 14:26:26;;;;;;;8.32;1.40;;;;;;;;;;5059368;28;20044;-39
2022/06/23 14:28:51;;;;;;;5.00;1.50;;;;;;;;;;5051866;28;20020;-39
2022/06/23 14:31:20;;;;;;;3.45;1.10;;;;;;;;;;5061734;28;20027;-39
2022/06/23 14:33:48;;;;;;;6.65;1.17;;;;;;;;;;5062072;28;20059;-38
2022/06/23 14:36:18;;;;;;;4.68;1.00;;;;;;;;;;5059024;28;20442;-40
2022/06/23 14:39:02;;;;;;;3.05;1.20;;;;;;;;;;5049389;28;20053;-40
2022/06/23 14:41:27;;;;;;;2.13;1.33;;;;;;;;;;5050187;28;20021;-38
2022/06/23 14:43:56;;;;;;;4.83;1.10;;;;;;;;;;5051716;28;20025;-39
2022/06/23 14:46:21;;;;;;;2.92;1.10;;;;;;;;;;5050575;28;20028;-39
2022/06/23 14:49:06;;;;;;;5.32;1.25;;;;;;;;;;5050241;28;20060;-39
2022/06/23 14:51:49;;;;;;;1.50;1.10;;;;;;;;;;5055173;28;20039;-41
2022/06/23 14:54:35;;;;;;;1.85;1.10;;;;;;;;;;5069681;28;20032;-42
2022/06/23 14:57:20;;;;;;;2.97;1.15;;;;;;;;;;5069350;28;20016;-39
2022/06/23 15:00:07;;;;;;;2.72;1.02;;;;;;;;;;5068691;28;20039;-40
2022/06/23 15:02:41;;;;;;;4.03;1.40;;;;;;;;;;5068191;28;20048;-41
2022/06/23 15:05:11;;;;;;;2.20;1.23;;;;;;;;;;5069604;28;20107;-38
2022/06/23 15:07:39;;;;;;;2.72;1.40;;;;;;;;;;5070204;28;20023;-38
2022/06/23 15:10:06;;;;;;;3.72;1.35;;;;;;;;;;5071423;28;20040;-38
2022/06/23 15:12:43;;;;;;;2.40;1.00;;;;;;;;;;5071306;28;20041;-38
2022/06/23 15:15:13;;;;;;;2.33;1.20;;;;;;;;;;5071810;28;20031;-38
2022/06/23 15:17:49;;;;;;;5.00;1.15;;;;;;;;;;5071639;28;20044;-38
2022/06/23 15:20:27;;;;;;;2.55;1.08;;;;;;;;;;5071541;28;20115;-39
2022/06/23 15:23:21;;;;;;;2.38;1.10;;;;;;;;;;5071248;28;20039;-40
2022/06/23 15:26:11;;;;;;;2.10;1.17;;;;;;;;;;5069635;28;20041;-38
2022/06/23 15:28:46;;;;;;;1.58;1.17;;;;;;;;;;5070885;28;20479;-41